sensor_id;sensor_type;location;lat;lon;timestamp;P1;durP1;ratioP1;P2;durP2;ratioP2
20611;SDS011;10465;42.686;23.364;2023-03-31T00:00:09;10.85;;;7.78;;
20611;SDS011;10465;42.686;23.364;2023-03-31T00:02:36;11.95;;;7.47;;
20611;SDS011;10465;42.686;23.364;2023-03-31T00:05:06;13.38;;;7.13;;
20611;SDS011;10465;42.686;23.364;2023-03-31T00:07:32;12.98;;;8.10;;
20611;SDS011;10465;42.686;23.364;2023-03-31T00:09:57;12.82;;;7.88;;
20611;SDS011;10465;42.686;23.364;2023-03-31T00:12:26;9.55;;;7.10;;
20611;SDS011;10465;42.686;23.364;2023-03-31T00:14:51;13.07;;;8.15;;
20611;SDS011;10465;42.686;23.364;2023-03-31T00:17:17;15.30;;;7.78;;
20611;SDS011;10465;42.686;23.364;2023-03-31T00:19:42;12.25;;;7.15;;
20611;SDS011;10465;42.686;23.364;2023-03-31T00:22:08;10.18;;;7.25;;
20611;SDS011;10465;42.686;23.364;2023-03-31T00:24:34;11.23;;;7.22;;
20611;SDS011;10465;42.686;23.364;2023-03-31T00:27:00;14.13;;;8.77;;
20611;SDS011;10465;42.686;23.364;2023-03-31T00:29:27;16.38;;;9.88;;
20611;SDS011;10465;42.686;23.364;2023-03-31T00:31:53;16.95;;;9.80;;
20611;SDS011;10465;42.686;23.364;2023-03-31T00:34:19;13.38;;;9.82;;
20611;SDS011;10465;42.686;23.364;2023-03-31T00:36:45;14.05;;;8.98;;
20611;SDS011;10465;42.686;23.364;2023-03-31T00:39:14;13.15;;;8.98;;
20611;SDS011;10465;42.686;23.364;2023-03-31T00:41:42;13.88;;;9.05;;
20611;SDS011;10465;42.686;23.364;2023-03-31T00:44:15;14.15;;;8.77;;
20611;SDS011;10465;42.686;23.364;2023-03-31T00:46:50;14.27;;;8.38;;
20611;SDS011;10465;42.686;23.364;2023-03-31T00:52:04;13.30;;;8.13;;
20611;SDS011;10465;42.686;23.364;2023-03-31T00:54:34;14.02;;;8.48;;
20611;SDS011;10465;42.686;23.364;2023-03-31T00:57:00;13.93;;;8.45;;
20611;SDS011;10465;42.686;23.364;2023-03-31T00:59:30;11.55;;;7.78;;
20611;SDS011;10465;42.686;23.364;2023-03-31T01:02:02;11.52;;;8.45;;
20611;SDS011;10465;42.686;23.364;2023-03-31T01:04:33;12.40;;;7.57;;
20611;SDS011;10465;42.686;23.364;2023-03-31T01:07:06;14.65;;;8.43;;
20611;SDS011;10465;42.686;23.364;2023-03-31T01:09:40;15.18;;;8.80;;
20611;SDS011;10465;42.686;23.364;2023-03-31T01:12:11;17.40;;;8.35;;
20611;SDS011;10465;42.686;23.364;2023-03-31T01:14:39;12.55;;;7.97;;
20611;SDS011;10465;42.686;23.364;2023-03-31T01:17:06;14.25;;;8.85;;
20611;SDS011;10465;42.686;23.364;2023-03-31T01:25:32;16.02;;;9.52;;
20611;SDS011;10465;42.686;23.364;2023-03-31T01:36:40;17.45;;;10.80;;
20611;SDS011;10465;42.686;23.364;2023-03-31T01:42:15;34.45;;;20.52;;
20611;SDS011;10465;42.686;23.364;2023-03-31T01:50:10;33.95;;;18.33;;
20611;SDS011;10465;42.686;23.364;2023-03-31T01:53:03;29.08;;;17.85;;
20611;SDS011;10465;42.686;23.364;2023-03-31T01:55:31;28.30;;;17.13;;
20611;SDS011;10465;42.686;23.364;2023-03-31T01:58:05;27.58;;;15.45;;
20611;SDS011;10465;42.686;23.364;2023-03-31T02:00:43;31.73;;;19.20;;
20611;SDS011;10465;42.686;23.364;2023-03-31T02:03:21;34.47;;;20.15;;
20611;SDS011;10465;42.686;23.364;2023-03-31T02:05:52;40.13;;;21.30;;
20611;SDS011;10465;42.686;23.364;2023-03-31T02:08:46;39.72;;;22.98;;
20611;SDS011;10465;42.686;23.364;2023-03-31T02:11:17;42.05;;;24.38;;
20611;SDS011;10465;42.686;23.364;2023-03-31T02:13:44;37.75;;;24.02;;
20611;SDS011;10465;42.686;23.364;2023-03-31T02:16:12;39.42;;;22.20;;
20611;SDS011;10465;42.686;23.364;2023-03-31T02:18:45;34.35;;;22.30;;
20611;SDS011;10465;42.686;23.364;2023-03-31T02:21:14;36.20;;;21.02;;
20611;SDS011;10465;42.686;23.364;2023-03-31T02:23:40;29.50;;;18.67;;
20611;SDS011;10465;42.686;23.364;2023-03-31T02:28:37;30.90;;;17.40;;
20611;SDS011;10465;42.686;23.364;2023-03-31T02:33:32;22.65;;;13.23;;
20611;SDS011;10465;42.686;23.364;2023-03-31T02:35:58;22.63;;;13.77;;
20611;SDS011;10465;42.686;23.364;2023-03-31T02:38:24;19.73;;;12.23;;
20611;SDS011;10465;42.686;23.364;2023-03-31T02:40:50;19.10;;;11.48;;
20611;SDS011;10465;42.686;23.364;2023-03-31T02:43:15;21.92;;;11.80;;
20611;SDS011;10465;42.686;23.364;2023-03-31T02:45:42;22.38;;;12.50;;
20611;SDS011;10465;42.686;23.364;2023-03-31T02:48:11;20.55;;;12.75;;
20611;SDS011;10465;42.686;23.364;2023-03-31T03:01:41;16.48;;;9.85;;
20611;SDS011;10465;42.686;23.364;2023-03-31T03:14:38;19.70;;;10.07;;
20611;SDS011;10465;42.686;23.364;2023-03-31T03:17:34;15.10;;;9.77;;
20611;SDS011;10465;42.686;23.364;2023-03-31T03:20:05;13.55;;;9.45;;
20611;SDS011;10465;42.686;23.364;2023-03-31T03:22:33;17.73;;;9.23;;
20611;SDS011;10465;42.686;23.364;2023-03-31T03:25:00;21.30;;;9.25;;
20611;SDS011;10465;42.686;23.364;2023-03-31T03:27:26;13.02;;;8.00;;
20611;SDS011;10465;42.686;23.364;2023-03-31T03:29:52;13.77;;;8.32;;
20611;SDS011;10465;42.686;23.364;2023-03-31T03:32:18;19.80;;;9.02;;
20611;SDS011;10465;42.686;23.364;2023-03-31T03:34:43;13.07;;;8.00;;
20611;SDS011;10465;42.686;23.364;2023-03-31T03:37:09;14.95;;;8.07;;
20611;SDS011;10465;42.686;23.364;2023-03-31T03:39:34;13.68;;;7.95;;
20611;SDS011;10465;42.686;23.364;2023-03-31T03:42:00;11.70;;;7.35;;
20611;SDS011;10465;42.686;23.364;2023-03-31T03:44:25;12.73;;;8.38;;
20611;SDS011;10465;42.686;23.364;2023-03-31T03:46:51;12.82;;;7.97;;
20611;SDS011;10465;42.686;23.364;2023-03-31T03:49:16;12.90;;;8.02;;
20611;SDS011;10465;42.686;23.364;2023-03-31T03:51:42;11.95;;;7.82;;
20611;SDS011;10465;42.686;23.364;2023-03-31T03:54:07;15.88;;;7.70;;
20611;SDS011;10465;42.686;23.364;2023-03-31T03:56:33;13.20;;;6.65;;
20611;SDS011;10465;42.686;23.364;2023-03-31T03:58:58;9.13;;;6.07;;
20611;SDS011;10465;42.686;23.364;2023-03-31T04:01:24;9.68;;;5.88;;
20611;SDS011;10465;42.686;23.364;2023-03-31T04:03:49;12.57;;;6.53;;
20611;SDS011;10465;42.686;23.364;2023-03-31T04:06:15;7.80;;;5.30;;
20611;SDS011;10465;42.686;23.364;2023-03-31T04:08:40;9.25;;;5.22;;
20611;SDS011;10465;42.686;23.364;2023-03-31T04:11:13;9.77;;;6.97;;
20611;SDS011;10465;42.686;23.364;2023-03-31T04:13:41;13.55;;;8.52;;
20611;SDS011;10465;42.686;23.364;2023-03-31T04:16:07;14.60;;;9.30;;
20611;SDS011;10465;42.686;23.364;2023-03-31T04:18:33;24.20;;;10.20;;
20611;SDS011;10465;42.686;23.364;2023-03-31T04:21:01;16.10;;;9.05;;
20611;SDS011;10465;42.686;23.364;2023-03-31T04:23:33;15.82;;;8.70;;
20611;SDS011;10465;42.686;23.364;2023-03-31T04:26:09;12.48;;;8.55;;
20611;SDS011;10465;42.686;23.364;2023-03-31T04:28:35;12.23;;;7.00;;
20611;SDS011;10465;42.686;23.364;2023-03-31T04:31:02;10.57;;;6.80;;
20611;SDS011;10465;42.686;23.364;2023-03-31T04:33:30;12.50;;;7.55;;
20611;SDS011;10465;42.686;23.364;2023-03-31T04:35:58;13.07;;;7.32;;
20611;SDS011;10465;42.686;23.364;2023-03-31T04:38:30;10.48;;;6.70;;
20611;SDS011;10465;42.686;23.364;2023-03-31T04:40:57;9.80;;;6.75;;
20611;SDS011;10465;42.686;23.364;2023-03-31T04:43:24;10.60;;;7.07;;
20611;SDS011;10465;42.686;23.364;2023-03-31T04:45:49;10.18;;;7.47;;
20611;SDS011;10465;42.686;23.364;2023-03-31T04:48:15;15.98;;;7.53;;
20611;SDS011;10465;42.686;23.364;2023-03-31T04:50:41;11.93;;;7.00;;
20611;SDS011;10465;42.686;23.364;2023-03-31T04:53:07;11.13;;;7.63;;
20611;SDS011;10465;42.686;23.364;2023-03-31T04:55:32;9.73;;;7.25;;
20611;SDS011;10465;42.686;23.364;2023-03-31T04:57:59;8.95;;;6.13;;
20611;SDS011;10465;42.686;23.364;2023-03-31T05:00:25;9.70;;;5.78;;
20611;SDS011;10465;42.686;23.364;2023-03-31T05:02:50;8.80;;;5.70;;
20611;SDS011;10465;42.686;23.364;2023-03-31T05:05:16;9.48;;;6.05;;
20611;SDS011;10465;42.686;23.364;2023-03-31T05:07:42;10.57;;;6.93;;
20611;SDS011;10465;42.686;23.364;2023-03-31T05:10:08;9.98;;;6.43;;
20611;SDS011;10465;42.686;23.364;2023-03-31T05:12:34;15.05;;;7.15;;
20611;SDS011;10465;42.686;23.364;2023-03-31T05:15:03;13.45;;;8.23;;
20611;SDS011;10465;42.686;23.364;2023-03-31T05:17:33;17.05;;;9.68;;
20611;SDS011;10465;42.686;23.364;2023-03-31T05:20:00;14.80;;;8.88;;
20611;SDS011;10465;42.686;23.364;2023-03-31T05:22:31;13.48;;;8.70;;
20611;SDS011;10465;42.686;23.364;2023-03-31T05:25:01;12.40;;;8.65;;
20611;SDS011;10465;42.686;23.364;2023-03-31T05:27:28;13.02;;;8.05;;
20611;SDS011;10465;42.686;23.364;2023-03-31T05:29:54;14.30;;;9.63;;
20611;SDS011;10465;42.686;23.364;2023-03-31T05:32:19;16.60;;;10.38;;
20611;SDS011;10465;42.686;23.364;2023-03-31T05:34:45;14.77;;;11.07;;
20611;SDS011;10465;42.686;23.364;2023-03-31T05:37:11;16.38;;;11.70;;
20611;SDS011;10465;42.686;23.364;2023-03-31T05:39:36;13.85;;;9.90;;
20611;SDS011;10465;42.686;23.364;2023-03-31T05:42:02;14.95;;;9.10;;
20611;SDS011;10465;42.686;23.364;2023-03-31T05:44:29;15.65;;;9.15;;
20611;SDS011;10465;42.686;23.364;2023-03-31T05:46:55;15.65;;;10.70;;
20611;SDS011;10465;42.686;23.364;2023-03-31T05:49:21;22.67;;;14.05;;
20611;SDS011;10465;42.686;23.364;2023-03-31T05:51:46;22.70;;;13.63;;
20611;SDS011;10465;42.686;23.364;2023-03-31T05:54:12;14.75;;;10.48;;
20611;SDS011;10465;42.686;23.364;2023-03-31T05:56:38;15.13;;;9.80;;
20611;SDS011;10465;42.686;23.364;2023-03-31T05:59:03;14.82;;;9.30;;
20611;SDS011;10465;42.686;23.364;2023-03-31T06:01:29;13.98;;;9.73;;
20611;SDS011;10465;42.686;23.364;2023-03-31T06:03:54;12.73;;;8.48;;
20611;SDS011;10465;42.686;23.364;2023-03-31T06:06:20;13.77;;;10.25;;
20611;SDS011;10465;42.686;23.364;2023-03-31T06:08:47;15.13;;;9.05;;
20611;SDS011;10465;42.686;23.364;2023-03-31T06:11:14;13.93;;;8.15;;
20611;SDS011;10465;42.686;23.364;2023-03-31T06:13:43;11.90;;;7.30;;
20611;SDS011;10465;42.686;23.364;2023-03-31T06:16:10;12.75;;;6.45;;
20611;SDS011;10465;42.686;23.364;2023-03-31T06:18:36;9.77;;;6.30;;
20611;SDS011;10465;42.686;23.364;2023-03-31T06:21:02;8.90;;;5.93;;
20611;SDS011;10465;42.686;23.364;2023-03-31T06:23:28;10.48;;;6.15;;
20611;SDS011;10465;42.686;23.364;2023-03-31T06:25:57;12.88;;;6.00;;
20611;SDS011;10465;42.686;23.364;2023-03-31T06:28:26;13.50;;;6.00;;
20611;SDS011;10465;42.686;23.364;2023-03-31T06:30:58;11.05;;;6.05;;
20611;SDS011;10465;42.686;23.364;2023-03-31T06:33:25;9.63;;;6.82;;
20611;SDS011;10465;42.686;23.364;2023-03-31T06:35:50;9.75;;;6.18;;
20611;SDS011;10465;42.686;23.364;2023-03-31T06:38:18;12.70;;;6.68;;
20611;SDS011;10465;42.686;23.364;2023-03-31T06:40:44;13.30;;;7.18;;
20611;SDS011;10465;42.686;23.364;2023-03-31T06:43:10;14.23;;;7.25;;
20611;SDS011;10465;42.686;23.364;2023-03-31T06:45:36;11.43;;;6.88;;
20611;SDS011;10465;42.686;23.364;2023-03-31T06:48:01;11.77;;;7.00;;
20611;SDS011;10465;42.686;23.364;2023-03-31T06:50:26;14.23;;;6.80;;
20611;SDS011;10465;42.686;23.364;2023-03-31T06:52:52;11.50;;;6.35;;
20611;SDS011;10465;42.686;23.364;2023-03-31T06:55:19;12.70;;;6.65;;
20611;SDS011;10465;42.686;23.364;2023-03-31T06:57:44;13.57;;;7.07;;
20611;SDS011;10465;42.686;23.364;2023-03-31T07:00:10;10.93;;;6.50;;
20611;SDS011;10465;42.686;23.364;2023-03-31T07:02:36;13.13;;;6.70;;
20611;SDS011;10465;42.686;23.364;2023-03-31T07:05:02;10.80;;;6.60;;
20611;SDS011;10465;42.686;23.364;2023-03-31T07:07:29;13.43;;;6.78;;
20611;SDS011;10465;42.686;23.364;2023-03-31T07:09:56;12.07;;;6.75;;
20611;SDS011;10465;42.686;23.364;2023-03-31T07:12:22;19.05;;;9.32;;
20611;SDS011;10465;42.686;23.364;2023-03-31T07:14:47;13.15;;;8.18;;
20611;SDS011;10465;42.686;23.364;2023-03-31T07:17:13;12.30;;;7.50;;
20611;SDS011;10465;42.686;23.364;2023-03-31T07:19:38;13.23;;;6.63;;
20611;SDS011;10465;42.686;23.364;2023-03-31T07:22:06;10.25;;;5.60;;
20611;SDS011;10465;42.686;23.364;2023-03-31T07:24:34;9.80;;;6.35;;
20611;SDS011;10465;42.686;23.364;2023-03-31T07:27:00;13.23;;;6.45;;
20611;SDS011;10465;42.686;23.364;2023-03-31T07:29:25;10.18;;;6.78;;
20611;SDS011;10465;42.686;23.364;2023-03-31T07:31:51;9.70;;;5.82;;
20611;SDS011;10465;42.686;23.364;2023-03-31T07:34:17;8.18;;;5.82;;
20611;SDS011;10465;42.686;23.364;2023-03-31T07:36:42;11.38;;;5.78;;
20611;SDS011;10465;42.686;23.364;2023-03-31T07:39:08;7.47;;;4.65;;
20611;SDS011;10465;42.686;23.364;2023-03-31T07:41:33;9.07;;;4.53;;
20611;SDS011;10465;42.686;23.364;2023-03-31T07:44:00;7.32;;;4.53;;
20611;SDS011;10465;42.686;23.364;2023-03-31T07:46:25;6.25;;;4.53;;
20611;SDS011;10465;42.686;23.364;2023-03-31T07:48:53;7.53;;;4.63;;
20611;SDS011;10465;42.686;23.364;2023-03-31T07:51:21;7.93;;;4.70;;
20611;SDS011;10465;42.686;23.364;2023-03-31T07:53:49;9.82;;;5.10;;
20611;SDS011;10465;42.686;23.364;2023-03-31T07:56:16;7.90;;;4.35;;
20611;SDS011;10465;42.686;23.364;2023-03-31T07:58:43;9.27;;;5.57;;
20611;SDS011;10465;42.686;23.364;2023-03-31T08:01:09;6.57;;;4.95;;
20611;SDS011;10465;42.686;23.364;2023-03-31T08:03:40;13.63;;;4.85;;
20611;SDS011;10465;42.686;23.364;2023-03-31T08:06:06;6.85;;;4.60;;
20611;SDS011;10465;42.686;23.364;2023-03-31T08:08:31;7.75;;;3.90;;
20611;SDS011;10465;42.686;23.364;2023-03-31T08:10:57;11.20;;;4.05;;
20611;SDS011;10465;42.686;23.364;2023-03-31T08:13:23;6.75;;;3.78;;
20611;SDS011;10465;42.686;23.364;2023-03-31T08:15:48;5.35;;;3.58;;
20611;SDS011;10465;42.686;23.364;2023-03-31T08:18:13;5.45;;;3.15;;
20611;SDS011;10465;42.686;23.364;2023-03-31T08:20:39;9.00;;;3.42;;
20611;SDS011;10465;42.686;23.364;2023-03-31T08:23:05;9.55;;;3.70;;
20611;SDS011;10465;42.686;23.364;2023-03-31T08:25:33;5.88;;;3.53;;
20611;SDS011;10465;42.686;23.364;2023-03-31T08:27:58;7.72;;;2.95;;
20611;SDS011;10465;42.686;23.364;2023-03-31T08:30:24;8.55;;;3.50;;
20611;SDS011;10465;42.686;23.364;2023-03-31T08:32:50;6.13;;;3.10;;
20611;SDS011;10465;42.686;23.364;2023-03-31T08:35:15;5.15;;;2.47;;
20611;SDS011;10465;42.686;23.364;2023-03-31T08:37:41;5.20;;;3.05;;
20611;SDS011;10465;42.686;23.364;2023-03-31T08:40:07;5.05;;;2.95;;
20611;SDS011;10465;42.686;23.364;2023-03-31T08:42:42;7.30;;;2.95;;
20611;SDS011;10465;42.686;23.364;2023-03-31T08:47:49;7.57;;;3.00;;
20611;SDS011;10465;42.686;23.364;2023-03-31T08:50:25;4.57;;;3.10;;
20611;SDS011;10465;42.686;23.364;2023-03-31T08:53:05;7.03;;;3.13;;
20611;SDS011;10465;42.686;23.364;2023-03-31T08:55:50;7.43;;;3.08;;
20611;SDS011;10465;42.686;23.364;2023-03-31T09:12:41;7.45;;;3.03;;
20611;SDS011;10465;42.686;23.364;2023-03-31T09:18:06;6.28;;;2.33;;
20611;SDS011;10465;42.686;23.364;2023-03-31T09:20:43;6.80;;;2.67;;
20611;SDS011;10465;42.686;23.364;2023-03-31T09:25:53;5.25;;;2.70;;
20611;SDS011;10465;42.686;23.364;2023-03-31T09:28:21;5.55;;;2.20;;
20611;SDS011;10465;42.686;23.364;2023-03-31T09:31:02;5.03;;;1.80;;
20611;SDS011;10465;42.686;23.364;2023-03-31T09:33:33;6.03;;;1.98;;
20611;SDS011;10465;42.686;23.364;2023-03-31T09:35:59;3.80;;;2.22;;
20611;SDS011;10465;42.686;23.364;2023-03-31T09:38:33;4.68;;;2.35;;
20611;SDS011;10465;42.686;23.364;2023-03-31T09:40:59;4.30;;;2.50;;
20611;SDS011;10465;42.686;23.364;2023-03-31T09:43:29;6.20;;;2.25;;
20611;SDS011;10465;42.686;23.364;2023-03-31T09:45:59;3.63;;;2.33;;
20611;SDS011;10465;42.686;23.364;2023-03-31T09:48:26;4.68;;;1.92;;
20611;SDS011;10465;42.686;23.364;2023-03-31T09:51:03;10.45;;;2.45;;
20611;SDS011;10465;42.686;23.364;2023-03-31T09:53:36;5.00;;;2.40;;
20611;SDS011;10465;42.686;23.364;2023-03-31T09:56:05;4.15;;;2.10;;
20611;SDS011;10465;42.686;23.364;2023-03-31T09:58:42;10.70;;;2.92;;
20611;SDS011;10465;42.686;23.364;2023-03-31T10:01:11;6.85;;;2.30;;
20611;SDS011;10465;42.686;23.364;2023-03-31T10:03:46;5.20;;;2.13;;
20611;SDS011;10465;42.686;23.364;2023-03-31T10:06:13;4.28;;;1.85;;
20611;SDS011;10465;42.686;23.364;2023-03-31T10:11:11;3.28;;;2.10;;
20611;SDS011;10465;42.686;23.364;2023-03-31T10:13:48;6.43;;;2.53;;
20611;SDS011;10465;42.686;23.364;2023-03-31T10:18:55;5.00;;;2.00;;
20611;SDS011;10465;42.686;23.364;2023-03-31T10:21:36;3.33;;;1.45;;
20611;SDS011;10465;42.686;23.364;2023-03-31T10:24:07;9.00;;;2.60;;
20611;SDS011;10465;42.686;23.364;2023-03-31T10:26:35;3.50;;;2.00;;
20611;SDS011;10465;42.686;23.364;2023-03-31T10:29:02;4.90;;;2.80;;
20611;SDS011;10465;42.686;23.364;2023-03-31T10:31:36;5.10;;;2.13;;
20611;SDS011;10465;42.686;23.364;2023-03-31T10:34:07;7.32;;;2.47;;
20611;SDS011;10465;42.686;23.364;2023-03-31T10:36:36;4.63;;;2.20;;
20611;SDS011;10465;42.686;23.364;2023-03-31T10:39:04;5.25;;;2.03;;
20611;SDS011;10465;42.686;23.364;2023-03-31T10:41:31;3.22;;;2.28;;
20611;SDS011;10465;42.686;23.364;2023-03-31T10:44:01;9.75;;;7.10;;
20611;SDS011;10465;42.686;23.364;2023-03-31T10:51:51;3.97;;;2.47;;
20611;SDS011;10465;42.686;23.364;2023-03-31T10:54:22;2.85;;;2.33;;
20611;SDS011;10465;42.686;23.364;2023-03-31T10:56:55;5.25;;;2.63;;
20611;SDS011;10465;42.686;23.364;2023-03-31T11:01:54;5.05;;;2.22;;
20611;SDS011;10465;42.686;23.364;2023-03-31T11:07:40;8.63;;;2.50;;
20611;SDS011;10465;42.686;23.364;2023-03-31T11:13:40;4.22;;;2.30;;
20611;SDS011;10465;42.686;23.364;2023-03-31T11:24:08;7.47;;;2.53;;
20611;SDS011;10465;42.686;23.364;2023-03-31T11:41:18;5.22;;;2.53;;
20611;SDS011;10465;42.686;23.364;2023-03-31T11:43:51;7.68;;;2.70;;
20611;SDS011;10465;42.686;23.364;2023-03-31T11:46:23;5.60;;;2.53;;
20611;SDS011;10465;42.686;23.364;2023-03-31T11:48:53;5.15;;;2.10;;
20611;SDS011;10465;42.686;23.364;2023-03-31T11:51:31;6.00;;;2.58;;
20611;SDS011;10465;42.686;23.364;2023-03-31T11:54:06;6.47;;;2.42;;
20611;SDS011;10465;42.686;23.364;2023-03-31T11:56:39;5.00;;;2.40;;
20611;SDS011;10465;42.686;23.364;2023-03-31T11:59:05;4.75;;;2.67;;
20611;SDS011;10465;42.686;23.364;2023-03-31T12:04:35;6.38;;;2.30;;
20611;SDS011;10465;42.686;23.364;2023-03-31T12:07:10;4.38;;;1.92;;
20611;SDS011;10465;42.686;23.364;2023-03-31T12:09:49;5.00;;;1.90;;
20611;SDS011;10465;42.686;23.364;2023-03-31T12:12:38;2.63;;;1.95;;
20611;SDS011;10465;42.686;23.364;2023-03-31T12:15:24;5.57;;;2.20;;
20611;SDS011;10465;42.686;23.364;2023-03-31T12:18:00;6.00;;;2.33;;
20611;SDS011;10465;42.686;23.364;2023-03-31T12:20:35;3.78;;;2.22;;
20611;SDS011;10465;42.686;23.364;2023-03-31T12:23:07;5.43;;;2.10;;
20611;SDS011;10465;42.686;23.364;2023-03-31T12:25:49;4.95;;;2.40;;
20611;SDS011;10465;42.686;23.364;2023-03-31T12:28:28;4.28;;;2.00;;
20611;SDS011;10465;42.686;23.364;2023-03-31T12:30:57;3.63;;;2.13;;
20611;SDS011;10465;42.686;23.364;2023-03-31T12:33:30;5.50;;;2.30;;
20611;SDS011;10465;42.686;23.364;2023-03-31T12:42:11;3.75;;;2.40;;
20611;SDS011;10465;42.686;23.364;2023-03-31T12:44:43;5.10;;;2.20;;
20611;SDS011;10465;42.686;23.364;2023-03-31T12:47:44;3.20;;;1.83;;
20611;SDS011;10465;42.686;23.364;2023-03-31T12:55:48;10.73;;;2.38;;
20611;SDS011;10465;42.686;23.364;2023-03-31T13:06:03;3.45;;;1.90;;
20611;SDS011;10465;42.686;23.364;2023-03-31T13:11:13;4.00;;;1.73;;
20611;SDS011;10465;42.686;23.364;2023-03-31T13:13:40;4.53;;;2.30;;
20611;SDS011;10465;42.686;23.364;2023-03-31T13:16:10;9.32;;;2.47;;
20611;SDS011;10465;42.686;23.364;2023-03-31T13:18:44;3.75;;;1.92;;
20611;SDS011;10465;42.686;23.364;2023-03-31T13:21:15;5.13;;;2.40;;
20611;SDS011;10465;42.686;23.364;2023-03-31T13:23:43;4.60;;;2.00;;
20611;SDS011;10465;42.686;23.364;2023-03-31T13:29:08;4.80;;;2.20;;
20611;SDS011;10465;42.686;23.364;2023-03-31T13:34:24;8.05;;;2.00;;
20611;SDS011;10465;42.686;23.364;2023-03-31T13:42:40;4.80;;;2.00;;
20611;SDS011;10465;42.686;23.364;2023-03-31T13:45:25;4.63;;;2.28;;
20611;SDS011;10465;42.686;23.364;2023-03-31T14:10:36;5.72;;;2.28;;
20611;SDS011;10465;42.686;23.364;2023-03-31T14:13:06;4.95;;;1.88;;
20611;SDS011;10465;42.686;23.364;2023-03-31T14:15:34;5.30;;;2.30;;
20611;SDS011;10465;42.686;23.364;2023-03-31T14:18:02;6.20;;;2.22;;
20611;SDS011;10465;42.686;23.364;2023-03-31T14:23:03;5.50;;;2.35;;
20611;SDS011;10465;42.686;23.364;2023-03-31T14:28:59;5.15;;;2.15;;
20611;SDS011;10465;42.686;23.364;2023-03-31T14:32:09;3.75;;;2.10;;
20611;SDS011;10465;42.686;23.364;2023-03-31T14:37:12;4.13;;;2.15;;
20611;SDS011;10465;42.686;23.364;2023-03-31T14:39:43;5.47;;;2.10;;
20611;SDS011;10465;42.686;23.364;2023-03-31T14:42:18;3.50;;;2.17;;
20611;SDS011;10465;42.686;23.364;2023-03-31T14:44:47;6.47;;;2.47;;
20611;SDS011;10465;42.686;23.364;2023-03-31T14:47:14;3.65;;;2.28;;
20611;SDS011;10465;42.686;23.364;2023-03-31T14:49:47;8.30;;;2.70;;
20611;SDS011;10465;42.686;23.364;2023-03-31T14:52:22;6.75;;;2.47;;
20611;SDS011;10465;42.686;23.364;2023-03-31T14:54:48;7.00;;;2.22;;
20611;SDS011;10465;42.686;23.364;2023-03-31T14:57:21;5.10;;;2.20;;
20611;SDS011;10465;42.686;23.364;2023-03-31T14:59:52;6.28;;;2.30;;
20611;SDS011;10465;42.686;23.364;2023-03-31T15:02:22;9.38;;;2.63;;
20611;SDS011;10465;42.686;23.364;2023-03-31T15:04:55;4.78;;;2.03;;
20611;SDS011;10465;42.686;23.364;2023-03-31T15:07:22;8.60;;;2.28;;
20611;SDS011;10465;42.686;23.364;2023-03-31T15:09:48;9.55;;;2.30;;
20611;SDS011;10465;42.686;23.364;2023-03-31T15:12:16;6.45;;;2.30;;
20611;SDS011;10465;42.686;23.364;2023-03-31T15:14:45;6.90;;;2.78;;
20611;SDS011;10465;42.686;23.364;2023-03-31T15:17:23;7.68;;;2.20;;
20611;SDS011;10465;42.686;23.364;2023-03-31T15:19:53;7.57;;;2.60;;
20611;SDS011;10465;42.686;23.364;2023-03-31T15:22:22;4.63;;;2.03;;
20611;SDS011;10465;42.686;23.364;2023-03-31T15:24:50;7.53;;;2.47;;
20611;SDS011;10465;42.686;23.364;2023-03-31T15:30:18;7.55;;;2.80;;
20611;SDS011;10465;42.686;23.364;2023-03-31T15:32:47;3.42;;;2.13;;
20611;SDS011;10465;42.686;23.364;2023-03-31T15:35:34;5.43;;;2.20;;
20611;SDS011;10465;42.686;23.364;2023-03-31T15:38:00;7.45;;;2.42;;
20611;SDS011;10465;42.686;23.364;2023-03-31T15:48:03;3.60;;;2.15;;
20611;SDS011;10465;42.686;23.364;2023-03-31T15:50:31;6.35;;;2.10;;
20611;SDS011;10465;42.686;23.364;2023-03-31T15:52:57;5.35;;;2.20;;
20611;SDS011;10465;42.686;23.364;2023-03-31T15:55:26;6.60;;;2.72;;
20611;SDS011;10465;42.686;23.364;2023-03-31T15:57:58;8.40;;;2.75;;
20611;SDS011;10465;42.686;23.364;2023-03-31T16:02:56;9.57;;;2.88;;
20611;SDS011;10465;42.686;23.364;2023-03-31T16:08:03;6.18;;;2.70;;
20611;SDS011;10465;42.686;23.364;2023-03-31T16:10:34;7.45;;;2.70;;
20611;SDS011;10465;42.686;23.364;2023-03-31T16:13:01;5.55;;;2.88;;
20611;SDS011;10465;42.686;23.364;2023-03-31T16:17:59;8.68;;;3.20;;
20611;SDS011;10465;42.686;23.364;2023-03-31T16:20:30;5.25;;;3.00;;
20611;SDS011;10465;42.686;23.364;2023-03-31T16:23:01;6.78;;;3.25;;
20611;SDS011;10465;42.686;23.364;2023-03-31T16:25:45;9.20;;;4.05;;
20611;SDS011;10465;42.686;23.364;2023-03-31T16:28:15;11.68;;;4.07;;
20611;SDS011;10465;42.686;23.364;2023-03-31T16:30:48;8.20;;;3.95;;
20611;SDS011;10465;42.686;23.364;2023-03-31T16:33:21;14.20;;;5.82;;
20611;SDS011;10465;42.686;23.364;2023-03-31T16:35:48;10.77;;;5.80;;
20611;SDS011;10465;42.686;23.364;2023-03-31T16:38:17;9.30;;;7.70;;
20611;SDS011;10465;42.686;23.364;2023-03-31T16:40:43;16.10;;;9.00;;
20611;SDS011;10465;42.686;23.364;2023-03-31T16:45:53;14.57;;;10.80;;
20611;SDS011;10465;42.686;23.364;2023-03-31T16:48:21;15.60;;;9.75;;
20611;SDS011;10465;42.686;23.364;2023-03-31T16:50:49;17.70;;;10.43;;
20611;SDS011;10465;42.686;23.364;2023-03-31T16:53:18;17.70;;;9.10;;
20611;SDS011;10465;42.686;23.364;2023-03-31T16:55:46;17.95;;;9.63;;
20611;SDS011;10465;42.686;23.364;2023-03-31T16:58:11;18.60;;;11.10;;
20611;SDS011;10465;42.686;23.364;2023-03-31T17:00:37;12.05;;;9.20;;
20611;SDS011;10465;42.686;23.364;2023-03-31T17:03:05;18.88;;;6.00;;
20611;SDS011;10465;42.686;23.364;2023-03-31T17:05:32;13.05;;;6.07;;
20611;SDS011;10465;42.686;23.364;2023-03-31T17:08:06;14.55;;;7.05;;
20611;SDS011;10465;42.686;23.364;2023-03-31T17:10:32;6.63;;;3.67;;
20611;SDS011;10465;42.686;23.364;2023-03-31T17:12:58;11.27;;;4.95;;
20611;SDS011;10465;42.686;23.364;2023-03-31T17:15:24;9.77;;;4.85;;
20611;SDS011;10465;42.686;23.364;2023-03-31T17:17:56;6.20;;;4.15;;
20611;SDS011;10465;42.686;23.364;2023-03-31T17:20:23;9.07;;;4.07;;
20611;SDS011;10465;42.686;23.364;2023-03-31T17:22:52;8.18;;;4.00;;
20611;SDS011;10465;42.686;23.364;2023-03-31T17:25:18;10.63;;;5.15;;
20611;SDS011;10465;42.686;23.364;2023-03-31T17:27:43;12.00;;;5.55;;
20611;SDS011;10465;42.686;23.364;2023-03-31T17:30:09;10.32;;;5.30;;
20611;SDS011;10465;42.686;23.364;2023-03-31T17:32:35;12.95;;;5.97;;
20611;SDS011;10465;42.686;23.364;2023-03-31T17:35:01;12.90;;;6.18;;
20611;SDS011;10465;42.686;23.364;2023-03-31T17:37:27;9.73;;;5.60;;
20611;SDS011;10465;42.686;23.364;2023-03-31T17:39:53;10.40;;;5.07;;
20611;SDS011;10465;42.686;23.364;2023-03-31T17:42:19;9.52;;;5.70;;
20611;SDS011;10465;42.686;23.364;2023-03-31T17:44:45;13.20;;;5.70;;
20611;SDS011;10465;42.686;23.364;2023-03-31T17:47:11;13.40;;;5.97;;
20611;SDS011;10465;42.686;23.364;2023-03-31T17:49:37;13.63;;;5.97;;
20611;SDS011;10465;42.686;23.364;2023-03-31T17:52:03;12.63;;;5.72;;
20611;SDS011;10465;42.686;23.364;2023-03-31T17:54:29;16.92;;;5.95;;
20611;SDS011;10465;42.686;23.364;2023-03-31T17:56:54;8.70;;;6.03;;
20611;SDS011;10465;42.686;23.364;2023-03-31T17:59:20;11.32;;;6.60;;
20611;SDS011;10465;42.686;23.364;2023-03-31T18:01:46;15.07;;;6.40;;